Language selection

My Weather Profile Weather Topics  | 

Central Coast from McInnes Island to Pine Island: Past 24 Hour Conditions

 

South Nomad - 46036

01:00 AM PST 30 November 2022Buoy position: 48.35N 133.95W
Disclaimer

This table is a summary of hourly weather conditions for the past 24 hours.
Please note that these observations might not always be representative of weather conditions over their associated marine area.

Date / Time
(PST)
Wind(knots) Wave height(m) Wave period(s) Pressure(kPa) Air tempC) Water tempC)
30 November 2022
1:00 N 23 gust 29 5.1 10.7 100.4 5 11
0:00 N 24 gust 31 4.4 11.1 100.4 6 11
29 November 2022
23:00 N 26 gust 33 4.2 9.5 100.4 6 11
22:00 N 26 gust 31 4.2 10.2 100.3 4 11
21:00 NE 5 gust 10 4.5 9.5 100.2 5 11
20:00 N 24 gust 29 4.6 9.5 100.1 5 11
19:00 NW 26 gust 32 4.5 9.1 100.0 6 11
18:00 NW 27 gust 33 4.8 8.8 100.0 6 11
17:00 NW 31 gust 42 4.7 8.8 99.9 6 11
16:00 NW 29 gust 33 4.5 8.3 100.0 7 11
15:00 WNW 28 gust 35 4.1 8.3 100.0 8 11
14:00 NW 26 gust 32 4.1 8.5 100.1 8 11
13:00 NW 25 gust 31 3.9 7.8 100.2 8 11
12:00 NW 26 gust 32 4.1 7.8 100.2 9 11
11:00 NW 25 gust 30 4.0 7.8 100.2 9 11
10:00 WNW 27 gust 32 4.1 8.0 100.2 10 11
9:00 WNW 26 N/A N/A 100.2 11 N/A
8:00 W 25 gust 32 3.5 6.9 100.1 11 11
7:00 W 26 gust 31 3.1 6.0 100.2 11 11
6:00 SW 25 gust 29 N/A 9.5 100.4 10 11
5:00 SW 21 gust 26 N/A 9.1 100.7 9 11
4:00 WSW 23 gust 28 3.0 9.1 100.9 9 11
3:00 WSW 22 gust 26 3.0 10.7 101.2 9 11
2:00 WSW 18 gust 22 3.0 10.7 101.4 9 11
1:00 W 19 gust 24 2.8 10.7 101.5 9 11

Zoom-in to make a selection

Map of Pacific - South Coast marine weather areas South Nomad - 46036 Sentry Shoal - 46131 South Brooks - 46132 Halibut Bank - 46146 South Moresby - 46147 South Hecate Strait - 46185 West Sea Otter - 46204 La Perouse Bank - 46206 East Dellwood - 46207 Georgia Strait - 46303 English Bay - 46304 Discovery Island Esquimalt Harbour Kelp Reefs Malahat Race Rocks Lightstation Saturna Island Sheringham Point University of Victoria Victoria Gonzales Victoria Int'l Airport Ballenas Islands Campbell River Airport Comox Airport Entrance Island Fanny Island Nanaimo Airport Port Hardy Airport Sisters Islets Estevan Point Port Alberni Sartine Island Solander Island Tofino Airport Grief Point Howe Sound - Pam Rocks Powell River Airport Sechelt Squamish Airport Cape St.James Bella Bella Airport Bella Coola Airport Cathedral Point Herbert Island Point Atkinson Sand Heads Lightstation Tsawwassen Ferry Terminal Vancouver Int'l Airport Vancouver Harbour West Vancouver
Legend:
buoy Buoy
land station Land Station

Pacific - South Coast Area

Another Region

What we are doing

Date modified: